Aérodrome :
LOGIN :

S'inscrire | Disclaimer

   EN    FR    IT 

 










Légende :    VFR   VFR Marginal   IFR   IFR Intensif   IFR Très Intensif
Visi : 
Plafond : 
>= 8 km
>= 3000ft
5 à 8 km
1000 à 3000 ft
1500m à 5 km
500 à 1000 ft
800 à 1500m
200 à 500 ft
< 800m
< 200 ft
Symboles :   Orages  Brouillard  Fortes neiges  Fortes précipitations  Vent > 20 kt
SIGMETs :   Divers  Orages  Givrage  Turbulence  Onde Orograph.  Cendres Volcan.






- Altitude de l'aérodrome : 1512 ft
- Code IATA : GHA


DAUG - Noumerate - Ghardaia

DERNIER METAR :
  • 252300Z 29008KT 9999 FEW046 SCT233 12/M02 Q1023

METARs EXPIRÉS :
  • 252200Z 29002KT CAVOK 11/M02 Q1022
  • 252100Z 32003KT CAVOK 10/M03 Q1022

TAF TAF DAUG
Valide du 25 à 18h jusqu'au 26 à 18h UTC


251700Z 2518/2618 28006KT 9999 SCT046 BKN100
TEMPO 2522/2606 FEW046CB
PROB40
TEMPO 2600/2604 VRB15G30KT 5000 -TSRA FEW040CB
BECMG 2603/2606 04010KT



MET'MAP, la Météo Aéronautique d'un coup d'oeil ! - Copyright ORBIFLY Décembre 2007 - Disclaimer

ORBIFLY MET'MAP TEAM :

Programmation & Développement : Alexandra Zaïnal
Sur une idée originale de : Baudouin d'Aumeries
Assistance à la programmation : Marc-Olivier Méhu
Soutien technique & logistique : Manuel Goepfert

Contact : metmap@orbifly.com




SOURCES & CREDITS :

   NOAA